sensor_id;sensor_type;location;lat;lon;timestamp;pressure;altitude;pressure_sealevel;temperature;humidity
76216;BME280;65010;50.190;18.930;2024-02-26T00:00:29;97361.31;;;6.96;51.11
76216;BME280;65010;50.190;18.930;2024-02-26T00:03:38;97356.16;;;6.88;51.57
76216;BME280;65010;50.190;18.930;2024-02-26T00:06:44;97349.19;;;6.80;51.46
76216;BME280;65010;50.190;18.930;2024-02-26T00:09:53;97363.75;;;6.75;51.75
76216;BME280;65010;50.190;18.930;2024-02-26T00:12:59;97360.03;;;6.69;51.96
76216;BME280;65010;50.190;18.930;2024-02-26T00:16:08;97357.16;;;6.64;52.09
76216;BME280;65010;50.190;18.930;2024-02-26T00:19:14;97356.84;;;6.59;52.43
76216;BME280;65010;50.190;18.930;2024-02-26T00:22:21;97351.50;;;6.52;52.69
76216;BME280;65010;50.190;18.930;2024-02-26T00:25:27;97359.38;;;6.44;52.82
76216;BME280;65010;50.190;18.930;2024-02-26T00:28:33;97349.31;;;6.33;53.30
76216;BME280;65010;50.190;18.930;2024-02-26T00:31:42;97359.25;;;6.29;53.41
76216;BME280;65010;50.190;18.930;2024-02-26T00:34:48;97354.72;;;6.23;53.71
76216;BME280;65010;50.190;18.930;2024-02-26T00:37:54;97350.81;;;6.19;54.19
76216;BME280;65010;50.190;18.930;2024-02-26T00:41:02;97356.03;;;6.19;54.31
76216;BME280;65010;50.190;18.930;2024-02-26T00:44:08;97361.78;;;6.14;54.33
76216;BME280;65010;50.190;18.930;2024-02-26T00:47:17;97358.84;;;6.17;54.75
76216;BME280;65010;50.190;18.930;2024-02-26T00:50:23;97357.78;;;6.26;54.60
76216;BME280;65010;50.190;18.930;2024-02-26T00:53:29;97360.06;;;6.38;54.44
76216;BME280;65010;50.190;18.930;2024-02-26T00:56:35;97364.25;;;6.47;54.41
76216;BME280;65010;50.190;18.930;2024-02-26T00:59:41;97365.19;;;6.54;54.10
76216;BME280;65010;50.190;18.930;2024-02-26T01:02:50;97367.47;;;6.57;54.02
76216;BME280;65010;50.190;18.930;2024-02-26T01:05:56;97365.66;;;6.58;54.19
76216;BME280;65010;50.190;18.930;2024-02-26T01:09:02;97362.25;;;6.57;54.05
76216;BME280;65010;50.190;18.930;2024-02-26T01:12:09;97356.56;;;6.54;53.91
76216;BME280;65010;50.190;18.930;2024-02-26T01:15:15;97349.69;;;6.53;53.93
76216;BME280;65010;50.190;18.930;2024-02-26T01:18:27;97361.56;;;6.55;53.80
76216;BME280;65010;50.190;18.930;2024-02-26T01:21:33;97353.94;;;6.54;54.03
76216;BME280;65010;50.190;18.930;2024-02-26T01:24:40;97358.16;;;6.55;53.98
76216;BME280;65010;50.190;18.930;2024-02-26T01:27:46;97348.53;;;6.55;53.82
76216;BME280;65010;50.190;18.930;2024-02-26T01:30:52;97360.44;;;6.58;54.00
76216;BME280;65010;50.190;18.930;2024-02-26T01:34:01;97354.59;;;6.56;54.01
76216;BME280;65010;50.190;18.930;2024-02-26T01:37:08;97348.09;;;6.52;54.30
76216;BME280;65010;50.190;18.930;2024-02-26T01:40:14;97347.59;;;6.48;54.25
76216;BME280;65010;50.190;18.930;2024-02-26T01:43:23;97348.13;;;6.43;54.63
76216;BME280;65010;50.190;18.930;2024-02-26T01:46:31;97343.72;;;6.44;54.56
76216;BME280;65010;50.190;18.930;2024-02-26T01:49:42;97339.94;;;6.46;54.99
76216;BME280;65010;50.190;18.930;2024-02-26T01:52:51;97345.97;;;6.47;54.97
76216;BME280;65010;50.190;18.930;2024-02-26T01:56:00;97342.06;;;6.43;55.00
76216;BME280;65010;50.190;18.930;2024-02-26T01:59:07;97343.25;;;6.40;55.04
76216;BME280;65010;50.190;18.930;2024-02-26T02:02:15;97349.78;;;6.36;55.07
76216;BME280;65010;50.190;18.930;2024-02-26T02:05:24;97351.13;;;6.32;55.23
76216;BME280;65010;50.190;18.930;2024-02-26T02:08:32;97346.19;;;6.29;55.24
76216;BME280;65010;50.190;18.930;2024-02-26T02:11:40;97343.13;;;6.25;55.20
76216;BME280;65010;50.190;18.930;2024-02-26T02:14:47;97340.84;;;6.22;55.18
76216;BME280;65010;50.190;18.930;2024-02-26T02:17:53;97332.56;;;6.19;55.21
76216;BME280;65010;50.190;18.930;2024-02-26T02:21:03;97343.66;;;6.13;55.30
76216;BME280;65010;50.190;18.930;2024-02-26T02:24:09;97345.34;;;6.05;55.17
76216;BME280;65010;50.190;18.930;2024-02-26T02:27:16;97342.94;;;5.96;55.50
76216;BME280;65010;50.190;18.930;2024-02-26T02:30:26;97342.63;;;5.90;55.62
76216;BME280;65010;50.190;18.930;2024-02-26T02:33:36;97344.44;;;5.82;55.73
76216;BME280;65010;50.190;18.930;2024-02-26T02:36:52;97344.44;;;5.82;56.23
76216;BME280;65010;50.190;18.930;2024-02-26T02:40:00;97340.03;;;5.82;56.35
76216;BME280;65010;50.190;18.930;2024-02-26T02:43:06;97342.00;;;5.80;56.31
76216;BME280;65010;50.190;18.930;2024-02-26T02:46:13;97336.66;;;5.74;56.10
76216;BME280;65010;50.190;18.930;2024-02-26T02:49:19;97333.75;;;5.60;56.38
76216;BME280;65010;50.190;18.930;2024-02-26T02:52:29;97343.53;;;5.58;56.58
76216;BME280;65010;50.190;18.930;2024-02-26T02:55:35;97340.44;;;5.46;56.96
76216;BME280;65010;50.190;18.930;2024-02-26T02:58:42;97332.97;;;5.43;57.05
76216;BME280;65010;50.190;18.930;2024-02-26T03:01:47;97332.19;;;5.43;57.07
76216;BME280;65010;50.190;18.930;2024-02-26T03:04:56;97328.44;;;5.37;57.39
76216;BME280;65010;50.190;18.930;2024-02-26T03:08:05;97328.59;;;5.36;57.43
76216;BME280;65010;50.190;18.930;2024-02-26T03:11:13;97326.34;;;5.33;57.75
76216;BME280;65010;50.190;18.930;2024-02-26T03:14:19;97325.19;;;5.27;58.08
76216;BME280;65010;50.190;18.930;2024-02-26T03:17:26;97317.69;;;5.24;57.97
76216;BME280;65010;50.190;18.930;2024-02-26T03:20:32;97318.69;;;5.23;58.28
76216;BME280;65010;50.190;18.930;2024-02-26T03:23:41;97322.91;;;5.24;58.39
76216;BME280;65010;50.190;18.930;2024-02-26T03:26:47;97322.59;;;5.27;58.16
76216;BME280;65010;50.190;18.930;2024-02-26T03:29:55;97322.44;;;5.28;58.16
76216;BME280;65010;50.190;18.930;2024-02-26T03:33:02;97316.72;;;5.33;57.94
76216;BME280;65010;50.190;18.930;2024-02-26T03:36:11;97318.34;;;5.34;57.94
76216;BME280;65010;50.190;18.930;2024-02-26T03:39:19;97318.19;;;5.36;57.86
76216;BME280;65010;50.190;18.930;2024-02-26T03:42:26;97314.13;;;5.33;57.98
76216;BME280;65010;50.190;18.930;2024-02-26T03:45:32;97313.63;;;5.29;58.01
76216;BME280;65010;50.190;18.930;2024-02-26T03:48:39;97310.53;;;5.26;58.04
76216;BME280;65010;50.190;18.930;2024-02-26T03:51:45;97299.16;;;5.27;58.17
76216;BME280;65010;50.190;18.930;2024-02-26T03:54:54;97306.63;;;5.30;57.84
76216;BME280;65010;50.190;18.930;2024-02-26T03:58:00;97300.75;;;5.28;57.88
76216;BME280;65010;50.190;18.930;2024-02-26T04:01:07;97299.16;;;5.27;58.04
76216;BME280;65010;50.190;18.930;2024-02-26T04:04:13;97298.81;;;5.30;58.08
76216;BME280;65010;50.190;18.930;2024-02-26T04:07:20;97288.56;;;5.28;57.94
76216;BME280;65010;50.190;18.930;2024-02-26T04:10:28;97290.81;;;5.32;57.97
76216;BME280;65010;50.190;18.930;2024-02-26T04:13:35;97290.16;;;5.38;57.75
76216;BME280;65010;50.190;18.930;2024-02-26T04:16:41;97285.28;;;5.43;57.66
76216;BME280;65010;50.190;18.930;2024-02-26T04:19:48;97284.75;;;5.47;57.40
76216;BME280;65010;50.190;18.930;2024-02-26T04:22:54;97284.59;;;5.49;57.16
76216;BME280;65010;50.190;18.930;2024-02-26T04:26:05;97285.41;;;5.49;57.21
76216;BME280;65010;50.190;18.930;2024-02-26T04:29:14;97287.22;;;5.49;57.04
76216;BME280;65010;50.190;18.930;2024-02-26T04:32:21;97285.56;;;5.48;57.03
76216;BME280;65010;50.190;18.930;2024-02-26T04:35:28;97288.19;;;5.40;57.01
76216;BME280;65010;50.190;18.930;2024-02-26T04:38:35;97278.28;;;5.35;57.35
76216;BME280;65010;50.190;18.930;2024-02-26T04:41:43;97278.59;;;5.32;57.65
76216;BME280;65010;50.190;18.930;2024-02-26T04:44:50;97277.81;;;5.32;57.52
76216;BME280;65010;50.190;18.930;2024-02-26T04:47:56;97274.22;;;5.33;57.67
76216;BME280;65010;50.190;18.930;2024-02-26T04:51:03;97271.94;;;5.29;57.60
76216;BME280;65010;50.190;18.930;2024-02-26T04:54:10;97272.09;;;5.28;57.77
76216;BME280;65010;50.190;18.930;2024-02-26T04:57:19;97265.59;;;5.24;57.57
76216;BME280;65010;50.190;18.930;2024-02-26T05:00:26;97268.22;;;5.16;57.89
76216;BME280;65010;50.190;18.930;2024-02-26T05:03:32;97260.44;;;5.07;57.89
76216;BME280;65010;50.190;18.930;2024-02-26T05:06:38;97263.38;;;5.04;58.11
76216;BME280;65010;50.190;18.930;2024-02-26T05:09:46;97269.03;;;5.08;58.05
76216;BME280;65010;50.190;18.930;2024-02-26T05:12:55;97275.75;;;5.10;58.04
76216;BME280;65010;50.190;18.930;2024-02-26T05:16:02;97273.44;;;5.16;58.20
76216;BME280;65010;50.190;18.930;2024-02-26T05:19:08;97283.84;;;5.16;58.18
76216;BME280;65010;50.190;18.930;2024-02-26T05:22:15;97277.03;;;5.15;58.26
76216;BME280;65010;50.190;18.930;2024-02-26T05:25:20;97286.81;;;5.13;58.28
76216;BME280;65010;50.190;18.930;2024-02-26T05:28:30;97282.06;;;5.08;58.47
76216;BME280;65010;50.190;18.930;2024-02-26T05:31:35;97278.50;;;5.09;58.32
76216;BME280;65010;50.190;18.930;2024-02-26T05:34:42;97286.97;;;5.11;58.47
76216;BME280;65010;50.190;18.930;2024-02-26T05:37:48;97276.38;;;5.13;58.65
76216;BME280;65010;50.190;18.930;2024-02-26T05:40:54;97281.91;;;5.18;58.71
76216;BME280;65010;50.190;18.930;2024-02-26T05:44:03;97281.22;;;5.24;58.72
76216;BME280;65010;50.190;18.930;2024-02-26T05:47:13;97292.94;;;5.28;58.48
76216;BME280;65010;50.190;18.930;2024-02-26T05:50:19;97287.56;;;5.29;58.75
76216;BME280;65010;50.190;18.930;2024-02-26T05:53:26;97290.03;;;5.31;58.68
76216;BME280;65010;50.190;18.930;2024-02-26T05:56:32;97291.47;;;5.34;58.41
76216;BME280;65010;50.190;18.930;2024-02-26T05:59:41;97300.09;;;5.34;58.75
76216;BME280;65010;50.190;18.930;2024-02-26T06:02:47;97293.75;;;5.37;58.66
76216;BME280;65010;50.190;18.930;2024-02-26T06:05:53;97308.25;;;5.39;58.70
76216;BME280;65010;50.190;18.930;2024-02-26T06:08:59;97305.94;;;5.44;58.67
76216;BME280;65010;50.190;18.930;2024-02-26T06:12:06;97306.25;;;5.49;58.61
76216;BME280;65010;50.190;18.930;2024-02-26T06:15:15;97309.00;;;5.56;58.57
76216;BME280;65010;50.190;18.930;2024-02-26T06:18:22;97302.47;;;5.60;58.49
76216;BME280;65010;50.190;18.930;2024-02-26T06:21:28;97311.91;;;5.69;58.63
76216;BME280;65010;50.190;18.930;2024-02-26T06:24:34;97309.44;;;5.76;58.61
76216;BME280;65010;50.190;18.930;2024-02-26T06:27:40;97308.28;;;5.79;58.70
76216;BME280;65010;50.190;18.930;2024-02-26T06:30:49;97313.47;;;5.87;58.41
76216;BME280;65010;50.190;18.930;2024-02-26T06:33:55;97320.13;;;5.89;58.50
76216;BME280;65010;50.190;18.930;2024-02-26T06:37:02;97329.72;;;5.97;58.66
76216;BME280;65010;50.190;18.930;2024-02-26T06:40:09;97322.03;;;6.04;58.35
76216;BME280;65010;50.190;18.930;2024-02-26T06:43:16;97321.19;;;6.12;58.55
76216;BME280;65010;50.190;18.930;2024-02-26T06:46:24;97320.16;;;6.21;58.31
76216;BME280;65010;50.190;18.930;2024-02-26T06:49:34;97319.19;;;6.22;58.50
76216;BME280;65010;50.190;18.930;2024-02-26T06:52:40;97327.66;;;6.24;58.47
76216;BME280;65010;50.190;18.930;2024-02-26T06:55:47;97323.88;;;6.26;59.03
76216;BME280;65010;50.190;18.930;2024-02-26T06:58:52;97327.63;;;6.32;58.81
76216;BME280;65010;50.190;18.930;2024-02-26T07:02:02;97324.00;;;6.41;59.18
76216;BME280;65010;50.190;18.930;2024-02-26T07:05:08;97317.72;;;6.50;58.96
76216;BME280;65010;50.190;18.930;2024-02-26T07:08:18;97325.97;;;6.62;58.85
76216;BME280;65010;50.190;18.930;2024-02-26T07:11:24;97323.47;;;6.69;58.48
76216;BME280;65010;50.190;18.930;2024-02-26T07:14:31;97334.06;;;6.76;58.35
76216;BME280;65010;50.190;18.930;2024-02-26T07:17:39;97330.09;;;6.80;58.42
76216;BME280;65010;50.190;18.930;2024-02-26T07:20:51;97334.31;;;6.81;58.29
76216;BME280;65010;50.190;18.930;2024-02-26T07:23:56;97323.72;;;6.82;58.07
76216;BME280;65010;50.190;18.930;2024-02-26T07:27:04;97326.78;;;6.86;58.21
76216;BME280;65010;50.190;18.930;2024-02-26T07:30:11;97331.50;;;6.90;58.23
76216;BME280;65010;50.190;18.930;2024-02-26T07:33:21;97326.81;;;7.01;58.11
76216;BME280;65010;50.190;18.930;2024-02-26T07:36:27;97331.19;;;7.08;57.96
76216;BME280;65010;50.190;18.930;2024-02-26T07:39:33;97335.34;;;7.18;58.10
76216;BME280;65010;50.190;18.930;2024-02-26T07:42:39;97326.72;;;7.32;58.00
76216;BME280;65010;50.190;18.930;2024-02-26T07:45:46;97335.69;;;7.53;57.80
76216;BME280;65010;50.190;18.930;2024-02-26T07:48:54;97330.72;;;7.73;57.66
76216;BME280;65010;50.190;18.930;2024-02-26T07:52:01;97324.47;;;8.03;57.49
76216;BME280;65010;50.190;18.930;2024-02-26T07:55:07;97323.16;;;8.44;56.93
76216;BME280;65010;50.190;18.930;2024-02-26T07:58:14;97316.56;;;8.91;56.27
76216;BME280;65010;50.190;18.930;2024-02-26T08:01:20;97326.06;;;9.48;55.29
76216;BME280;65010;50.190;18.930;2024-02-26T08:04:29;97322.75;;;9.96;54.31
76216;BME280;65010;50.190;18.930;2024-02-26T08:07:35;97318.25;;;10.38;52.68
76216;BME280;65010;50.190;18.930;2024-02-26T08:10:42;97322.16;;;10.69;51.80
76216;BME280;65010;50.190;18.930;2024-02-26T08:13:48;97323.81;;;10.83;51.17
76216;BME280;65010;50.190;18.930;2024-02-26T08:16:55;97330.28;;;11.01;50.78
76216;BME280;65010;50.190;18.930;2024-02-26T08:20:04;97327.66;;;11.07;50.37
76216;BME280;65010;50.190;18.930;2024-02-26T08:23:12;97327.88;;;11.13;49.67
76216;BME280;65010;50.190;18.930;2024-02-26T08:26:17;97325.69;;;11.23;49.76
76216;BME280;65010;50.190;18.930;2024-02-26T08:29:25;97327.28;;;11.37;50.06
76216;BME280;65010;50.190;18.930;2024-02-26T08:32:31;97326.28;;;11.58;49.36
76216;BME280;65010;50.190;18.930;2024-02-26T08:35:40;97334.28;;;11.90;48.88
76216;BME280;65010;50.190;18.930;2024-02-26T08:38:46;97327.88;;;12.24;48.82
76216;BME280;65010;50.190;18.930;2024-02-26T08:41:53;97326.50;;;12.60;47.80
76216;BME280;65010;50.190;18.930;2024-02-26T08:44:59;97318.06;;;13.08;46.89
76216;BME280;65010;50.190;18.930;2024-02-26T08:48:07;97315.59;;;13.57;45.81
76216;BME280;65010;50.190;18.930;2024-02-26T08:51:15;97318.22;;;14.19;44.48
76216;BME280;65010;50.190;18.930;2024-02-26T08:54:22;97318.38;;;14.85;44.33
76216;BME280;65010;50.190;18.930;2024-02-26T08:57:28;97315.34;;;15.35;43.13
76216;BME280;65010;50.190;18.930;2024-02-26T09:00:36;97322.38;;;15.89;41.92
76216;BME280;65010;50.190;18.930;2024-02-26T09:03:41;97326.19;;;16.33;40.82
76216;BME280;65010;50.190;18.930;2024-02-26T09:06:51;97322.00;;;16.78;39.17
76216;BME280;65010;50.190;18.930;2024-02-26T09:09:56;97325.00;;;17.32;38.31
76216;BME280;65010;50.190;18.930;2024-02-26T09:13:03;97314.25;;;17.78;36.41
76216;BME280;65010;50.190;18.930;2024-02-26T09:16:09;97313.47;;;17.99;36.44
76216;BME280;65010;50.190;18.930;2024-02-26T09:19:17;97317.56;;;18.07;37.18
76216;BME280;65010;50.190;18.930;2024-02-26T09:22:26;97314.34;;;18.05;36.47
76216;BME280;65010;50.190;18.930;2024-02-26T09:25:32;97322.50;;;17.98;36.13
76216;BME280;65010;50.190;18.930;2024-02-26T09:28:38;97315.13;;;17.83;36.61
76216;BME280;65010;50.190;18.930;2024-02-26T09:31:45;97320.00;;;17.70;36.62
76216;BME280;65010;50.190;18.930;2024-02-26T09:34:51;97314.44;;;17.54;36.40
76216;BME280;65010;50.190;18.930;2024-02-26T09:38:00;97322.41;;;17.37;36.43
76216;BME280;65010;50.190;18.930;2024-02-26T09:41:14;97312.28;;;17.17;36.91
76216;BME280;65010;50.190;18.930;2024-02-26T09:44:24;97323.81;;;17.06;37.50
76216;BME280;65010;50.190;18.930;2024-02-26T09:47:33;97326.69;;;17.04;37.74
76216;BME280;65010;50.190;18.930;2024-02-26T09:50:44;97324.03;;;17.04;37.07
76216;BME280;65010;50.190;18.930;2024-02-26T09:53:53;97318.97;;;17.03;37.86
76216;BME280;65010;50.190;18.930;2024-02-26T09:57:03;97324.19;;;16.98;37.67
76216;BME280;65010;50.190;18.930;2024-02-26T10:00:15;97316.25;;;16.98;37.42
76216;BME280;65010;50.190;18.930;2024-02-26T10:03:30;97320.50;;;16.99;37.54
76216;BME280;65010;50.190;18.930;2024-02-26T10:06:43;97313.88;;;17.01;37.56
76216;BME280;65010;50.190;18.930;2024-02-26T10:09:55;97310.13;;;17.14;37.78
76216;BME280;65010;50.190;18.930;2024-02-26T10:13:01;97312.22;;;17.29;37.59
76216;BME280;65010;50.190;18.930;2024-02-26T10:16:13;97316.53;;;17.35;37.76
76216;BME280;65010;50.190;18.930;2024-02-26T10:19:25;97313.63;;;17.54;37.64
76216;BME280;65010;50.190;18.930;2024-02-26T10:22:33;97302.44;;;17.69;37.23
76216;BME280;65010;50.190;18.930;2024-02-26T10:25:52;97306.84;;;17.80;36.35
76216;BME280;65010;50.190;18.930;2024-02-26T10:29:03;97306.47;;;17.93;36.12
76216;BME280;65010;50.190;18.930;2024-02-26T10:32:08;97312.47;;;18.05;35.84
76216;BME280;65010;50.190;18.930;2024-02-26T10:35:17;97299.97;;;18.28;35.76
76216;BME280;65010;50.190;18.930;2024-02-26T10:38:25;97306.47;;;18.59;35.48
76216;BME280;65010;50.190;18.930;2024-02-26T10:41:34;97308.38;;;18.91;35.09
76216;BME280;65010;50.190;18.930;2024-02-26T10:44:40;97302.34;;;19.06;34.15
76216;BME280;65010;50.190;18.930;2024-02-26T10:47:48;97300.06;;;19.20;34.25
76216;BME280;65010;50.190;18.930;2024-02-26T10:50:54;97297.28;;;19.37;34.80
76216;BME280;65010;50.190;18.930;2024-02-26T10:54:04;97304.81;;;19.50;34.39
76216;BME280;65010;50.190;18.930;2024-02-26T10:57:18;97298.66;;;19.44;33.62
76216;BME280;65010;50.190;18.930;2024-02-26T11:00:26;97309.69;;;19.26;33.28
76216;BME280;65010;50.190;18.930;2024-02-26T11:03:36;97305.25;;;18.99;34.10
76216;BME280;65010;50.190;18.930;2024-02-26T11:06:44;97296.63;;;18.92;34.36
76216;BME280;65010;50.190;18.930;2024-02-26T11:09:53;97300.56;;;18.84;34.30
76216;BME280;65010;50.190;18.930;2024-02-26T11:13:05;97298.38;;;18.76;34.74
76216;BME280;65010;50.190;18.930;2024-02-26T11:16:16;97300.28;;;18.81;34.74
76216;BME280;65010;50.190;18.930;2024-02-26T11:19:24;97300.19;;;18.71;34.63
76216;BME280;65010;50.190;18.930;2024-02-26T11:22:31;97299.75;;;18.79;34.92
76216;BME280;65010;50.190;18.930;2024-02-26T11:25:38;97291.00;;;18.89;34.75
76216;BME280;65010;50.190;18.930;2024-02-26T11:28:48;97291.06;;;18.94;34.20
76216;BME280;65010;50.190;18.930;2024-02-26T11:31:59;97291.06;;;18.94;34.50
76216;BME280;65010;50.190;18.930;2024-02-26T11:35:06;97285.53;;;19.00;34.58
76216;BME280;65010;50.190;18.930;2024-02-26T11:38:21;97290.94;;;19.11;34.59
76216;BME280;65010;50.190;18.930;2024-02-26T11:41:27;97285.66;;;19.16;34.79
76216;BME280;65010;50.190;18.930;2024-02-26T11:44:36;97286.38;;;19.38;34.02
76216;BME280;65010;50.190;18.930;2024-02-26T11:47:56;97287.63;;;19.68;34.46
76216;BME280;65010;50.190;18.930;2024-02-26T11:51:04;97284.25;;;19.88;33.71
76216;BME280;65010;50.190;18.930;2024-02-26T11:58:02;97285.50;;;20.38;32.53
76216;BME280;65010;50.190;18.930;2024-02-26T12:01:38;97281.22;;;20.37;32.67
76216;BME280;65010;50.190;18.930;2024-02-26T12:04:45;97280.47;;;20.52;33.11
76216;BME280;65010;50.190;18.930;2024-02-26T12:07:54;97285.81;;;20.57;32.34
76216;BME280;65010;50.190;18.930;2024-02-26T12:11:02;97275.94;;;20.58;32.36
76216;BME280;65010;50.190;18.930;2024-02-26T12:14:09;97285.53;;;20.49;32.38
76216;BME280;65010;50.190;18.930;2024-02-26T12:17:23;97283.09;;;20.32;32.28
76216;BME280;65010;50.190;18.930;2024-02-26T12:20:31;97280.13;;;20.18;32.66
76216;BME280;65010;50.190;18.930;2024-02-26T12:23:38;97280.06;;;20.13;33.22
76216;BME280;65010;50.190;18.930;2024-02-26T12:26:44;97279.53;;;20.06;33.47
76216;BME280;65010;50.190;18.930;2024-02-26T12:29:50;97284.78;;;19.95;33.21
76216;BME280;65010;50.190;18.930;2024-02-26T12:32:58;97287.16;;;19.81;32.87
76216;BME280;65010;50.190;18.930;2024-02-26T12:36:06;97294.22;;;19.60;33.65
76216;BME280;65010;50.190;18.930;2024-02-26T12:39:12;97284.00;;;19.42;33.75
76216;BME280;65010;50.190;18.930;2024-02-26T12:42:19;97287.81;;;19.19;33.86
76216;BME280;65010;50.190;18.930;2024-02-26T12:45:25;97286.81;;;18.93;34.24
76216;BME280;65010;50.190;18.930;2024-02-26T12:48:35;97289.28;;;18.72;34.61
76216;BME280;65010;50.190;18.930;2024-02-26T12:51:42;97290.41;;;18.49;34.89
76216;BME280;65010;50.190;18.930;2024-02-26T12:54:49;97290.19;;;18.34;35.09
76216;BME280;65010;50.190;18.930;2024-02-26T12:57:55;97289.28;;;18.23;35.41
76216;BME280;65010;50.190;18.930;2024-02-26T13:01:02;97294.00;;;18.16;35.84
76216;BME280;65010;50.190;18.930;2024-02-26T13:04:11;97284.41;;;18.15;35.97
76216;BME280;65010;50.190;18.930;2024-02-26T13:07:18;97291.59;;;18.14;36.01
76216;BME280;65010;50.190;18.930;2024-02-26T13:10:25;97280.91;;;18.09;35.91
76216;BME280;65010;50.190;18.930;2024-02-26T13:13:32;97290.41;;;18.05;35.98
76216;BME280;65010;50.190;18.930;2024-02-26T13:16:38;97292.44;;;17.98;36.45
76216;BME280;65010;50.190;18.930;2024-02-26T13:19:53;97289.00;;;17.97;36.66
76216;BME280;65010;50.190;18.930;2024-02-26T13:23:00;97291.44;;;18.04;36.56
76216;BME280;65010;50.190;18.930;2024-02-26T13:26:11;97296.50;;;18.00;36.95
76216;BME280;65010;50.190;18.930;2024-02-26T13:29:17;97287.19;;;18.03;37.02
76216;BME280;65010;50.190;18.930;2024-02-26T13:32:25;97283.00;;;18.07;37.13
76216;BME280;65010;50.190;18.930;2024-02-26T13:35:36;97288.00;;;18.03;36.96
76216;BME280;65010;50.190;18.930;2024-02-26T13:38:51;97291.97;;;18.01;37.26
76216;BME280;65010;50.190;18.930;2024-02-26T13:41:58;97284.78;;;18.01;37.51
76216;BME280;65010;50.190;18.930;2024-02-26T13:45:06;97275.88;;;18.13;37.60
76216;BME280;65010;50.190;18.930;2024-02-26T13:48:13;97281.00;;;18.19;37.21
76216;BME280;65010;50.190;18.930;2024-02-26T13:51:23;97278.91;;;18.21;37.36
76216;BME280;65010;50.190;18.930;2024-02-26T13:54:28;97285.09;;;18.27;37.41
76216;BME280;65010;50.190;18.930;2024-02-26T13:57:36;97281.66;;;18.32;37.56
76216;BME280;65010;50.190;18.930;2024-02-26T14:00:41;97283.88;;;18.40;37.23
76216;BME280;65010;50.190;18.930;2024-02-26T14:03:48;97281.50;;;18.38;37.01
76216;BME280;65010;50.190;18.930;2024-02-26T14:06:56;97287.28;;;18.35;36.95
76216;BME280;65010;50.190;18.930;2024-02-26T14:10:03;97291.19;;;18.28;36.94
76216;BME280;65010;50.190;18.930;2024-02-26T14:13:09;97285.84;;;18.22;37.07
76216;BME280;65010;50.190;18.930;2024-02-26T14:16:16;97290.53;;;18.15;37.08
76216;BME280;65010;50.190;18.930;2024-02-26T14:19:22;97286.69;;;18.06;37.19
76216;BME280;65010;50.190;18.930;2024-02-26T14:22:31;97288.69;;;17.94;37.47
76216;BME280;65010;50.190;18.930;2024-02-26T14:25:37;97289.94;;;17.86;37.55
76216;BME280;65010;50.190;18.930;2024-02-26T14:28:43;97291.88;;;17.74;37.96
76216;BME280;65010;50.190;18.930;2024-02-26T14:31:49;97297.13;;;17.69;38.02
76216;BME280;65010;50.190;18.930;2024-02-26T14:34:56;97295.59;;;17.56;38.31
76216;BME280;65010;50.190;18.930;2024-02-26T14:38:04;97294.78;;;17.55;39.00
76216;BME280;65010;50.190;18.930;2024-02-26T14:41:11;97301.47;;;17.58;39.04
76216;BME280;65010;50.190;18.930;2024-02-26T14:44:16;97298.34;;;17.61;39.26
76216;BME280;65010;50.190;18.930;2024-02-26T14:47:23;97296.81;;;17.65;39.39
76216;BME280;65010;50.190;18.930;2024-02-26T14:50:28;97292.81;;;17.62;39.25
76216;BME280;65010;50.190;18.930;2024-02-26T14:53:37;97290.28;;;17.56;39.14
76216;BME280;65010;50.190;18.930;2024-02-26T14:56:43;97281.88;;;17.42;39.23
76216;BME280;65010;50.190;18.930;2024-02-26T14:59:49;97297.06;;;17.30;39.40
76216;BME280;65010;50.190;18.930;2024-02-26T15:02:55;97297.97;;;17.18;39.68
76216;BME280;65010;50.190;18.930;2024-02-26T15:06:01;97287.03;;;17.15;39.78
76216;BME280;65010;50.190;18.930;2024-02-26T15:09:10;97281.72;;;16.98;40.10
76216;BME280;65010;50.190;18.930;2024-02-26T15:12:17;97292.09;;;16.99;40.80
76216;BME280;65010;50.190;18.930;2024-02-26T15:15:33;97289.44;;;16.99;40.79
76216;BME280;65010;50.190;18.930;2024-02-26T15:18:42;97288.56;;;16.94;40.66
76216;BME280;65010;50.190;18.930;2024-02-26T15:21:48;97291.69;;;16.91;41.13
76216;BME280;65010;50.190;18.930;2024-02-26T15:24:57;97302.31;;;16.91;41.42
76216;BME280;65010;50.190;18.930;2024-02-26T15:28:04;97302.31;;;16.91;41.46
76216;BME280;65010;50.190;18.930;2024-02-26T15:31:13;97312.28;;;16.83;41.40
76216;BME280;65010;50.190;18.930;2024-02-26T15:34:20;97305.75;;;16.74;41.67
76216;BME280;65010;50.190;18.930;2024-02-26T15:37:27;97305.06;;;16.67;41.99
76216;BME280;65010;50.190;18.930;2024-02-26T15:40:35;97306.50;;;16.58;41.92
76216;BME280;65010;50.190;18.930;2024-02-26T15:43:41;97309.44;;;16.44;42.24
76216;BME280;65010;50.190;18.930;2024-02-26T15:46:47;97306.94;;;16.38;42.47
76216;BME280;65010;50.190;18.930;2024-02-26T15:49:53;97316.06;;;16.30;42.58
76216;BME280;65010;50.190;18.930;2024-02-26T15:52:59;97314.47;;;16.29;43.21
76216;BME280;65010;50.190;18.930;2024-02-26T15:56:09;97320.00;;;16.27;43.28
76216;BME280;65010;50.190;18.930;2024-02-26T15:59:14;97316.28;;;16.29;43.24
76216;BME280;65010;50.190;18.930;2024-02-26T16:02:21;97323.44;;;16.28;43.44
76216;BME280;65010;50.190;18.930;2024-02-26T16:05:26;97313.63;;;16.29;43.61
76216;BME280;65010;50.190;18.930;2024-02-26T16:08:33;97323.66;;;16.26;43.31
76216;BME280;65010;50.190;18.930;2024-02-26T16:11:41;97323.38;;;16.11;43.23
76216;BME280;65010;50.190;18.930;2024-02-26T16:14:50;97327.78;;;15.94;43.14
76216;BME280;65010;50.190;18.930;2024-02-26T16:17:56;97330.91;;;15.67;43.44
76216;BME280;65010;50.190;18.930;2024-02-26T16:21:03;97343.09;;;15.44;43.76
76216;BME280;65010;50.190;18.930;2024-02-26T16:24:09;97346.41;;;15.28;44.08
76216;BME280;65010;50.190;18.930;2024-02-26T16:27:18;97351.81;;;15.10;44.77
76216;BME280;65010;50.190;18.930;2024-02-26T16:30:24;97356.84;;;14.99;44.71